createdAt,value
2022-12-23T00:03:04.323Z,98730.85
2022-12-23T00:08:10.585Z,98729.13
2022-12-23T00:13:35.133Z,98734.23
2022-12-23T00:18:40.860Z,98733.93
2022-12-23T00:23:48.136Z,98743.30
2022-12-23T00:28:53.437Z,98746.73
2022-12-23T00:33:58.957Z,98744.63
2022-12-23T00:39:36.712Z,98744.70
2022-12-23T00:44:41.442Z,98748.96
2022-12-23T00:49:47.054Z,98749.35
2022-12-23T00:54:51.097Z,98755.70
2022-12-23T00:59:55.883Z,98759.80
2022-12-23T01:05:18.982Z,98759.20
2022-12-23T01:10:24.019Z,98754.60
2022-12-23T01:15:29.002Z,98755.27
2022-12-23T01:20:33.221Z,98756.58
2022-12-23T01:25:38.196Z,98764.63
2022-12-23T01:30:42.890Z,98773.06
2022-12-23T01:35:47.693Z,98773.96
2022-12-23T01:40:53.760Z,98769.30
2022-12-23T01:45:58.982Z,98773.59
2022-12-23T01:51:10.166Z,98774.05
2022-12-23T01:56:42.164Z,98770.58
2022-12-23T02:02:05.275Z,98775.14
2022-12-23T02:07:29.335Z,98776.80
2022-12-23T02:13:09.625Z,98773.98
2022-12-23T02:18:18.254Z,98787.88
2022-12-23T02:23:40.926Z,98796.36
2022-12-23T02:29:04.217Z,98804.23
2022-12-23T02:34:18.150Z,98795.89
2022-12-23T02:39:34.764Z,98792.45
2022-12-23T02:45:04.687Z,98787.78
2022-12-23T02:50:35.218Z,98787.21
2022-12-23T02:55:42.705Z,98785.39
2022-12-23T03:00:47.359Z,98789.00
2022-12-23T03:05:52.243Z,98796.41
2022-12-23T03:11:18.304Z,98796.75
2022-12-23T03:16:36.575Z,98796.30
2022-12-23T03:22:00.288Z,98795.80
2022-12-23T03:27:17.109Z,98796.45
2022-12-23T03:32:25.557Z,98801.05
2022-12-23T03:37:33.696Z,98801.70
2022-12-23T03:42:46.138Z,98793.21
2022-12-23T03:48:20.490Z,98794.19
2022-12-23T03:53:37.283Z,98793.91
2022-12-23T03:58:56.380Z,98789.97
2022-12-23T04:04:10.353Z,98784.41
2022-12-23T04:09:21.762Z,98794.80
2022-12-23T04:14:27.980Z,98801.00
2022-12-23T04:19:34.970Z,98804.70
2022-12-23T04:24:40.598Z,98809.22
2022-12-23T04:29:47.405Z,98804.30
2022-12-23T04:34:53.175Z,98797.23
2022-12-23T04:39:58.835Z,98792.34
2022-12-23T04:45:03.643Z,98782.67
2022-12-23T04:50:09.348Z,98775.56
2022-12-23T04:55:15.153Z,98778.34
2022-12-23T05:00:20.227Z,98784.77
2022-12-23T05:05:24.802Z,98790.48
2022-12-23T05:10:29.658Z,98799.39
2022-12-23T05:15:34.983Z,98791.80
2022-12-23T05:20:38.957Z,98792.32
2022-12-23T05:25:44.500Z,98794.85
2022-12-23T05:30:49.946Z,98787.41
2022-12-23T05:35:54.978Z,98785.96
2022-12-23T05:40:59.748Z,98787.86
2022-12-23T05:46:03.695Z,98791.86
2022-12-23T05:51:07.607Z,98802.55
2022-12-23T05:56:11.328Z,98810.45
2022-12-23T06:01:15.440Z,98811.45
2022-12-23T06:06:19.778Z,98812.33
2022-12-23T06:11:23.745Z,98807.05
2022-12-23T06:16:27.790Z,98807.27
2022-12-23T06:21:32.611Z,98805.01
2022-12-23T06:26:36.378Z,98805.80
2022-12-23T06:31:40.157Z,98808.65
2022-12-23T06:36:44.676Z,98810.01
2022-12-23T06:41:48.461Z,98815.39
2022-12-23T06:46:53.291Z,98812.50
2022-12-23T06:51:58.820Z,98811.30
2022-12-23T06:57:03.421Z,98803.70
2022-12-23T07:02:10.511Z,98797.52
2022-12-23T07:07:15.291Z,98796.20
2022-12-23T07:12:20.290Z,98799.44
2022-12-23T07:17:24.660Z,98800.83
2022-12-23T07:22:28.173Z,98801.25
2022-12-23T07:27:32.312Z,98797.15
2022-12-23T07:32:36.031Z,98796.39
2022-12-23T07:37:39.726Z,98799.09
2022-12-23T07:42:46.033Z,98794.02
2022-12-23T07:47:54.971Z,98795.23
2022-12-23T07:52:58.616Z,98792.08
2022-12-23T07:58:03.038Z,98792.85
2022-12-23T08:03:07.744Z,98788.41
2022-12-23T08:08:11.956Z,98786.02
2022-12-23T08:13:16.580Z,98776.39
2022-12-23T08:18:21.367Z,98762.27
2022-12-23T08:23:27.898Z,98754.16
2022-12-23T08:28:32.916Z,98751.48
2022-12-23T08:33:40.988Z,98748.44
2022-12-23T08:38:46.184Z,98743.80
2022-12-23T08:43:50.821Z,98745.59
2022-12-23T08:48:56.286Z,98737.91
2022-12-23T08:54:01.910Z,98731.36
2022-12-23T08:59:06.511Z,98723.95
2022-12-23T09:04:11.161Z,98715.09
2022-12-23T09:09:16.840Z,98712.85
2022-12-23T09:14:21.476Z,98708.02
2022-12-23T09:19:26.460Z,98703.78
2022-12-23T09:24:30.791Z,98698.21
2022-12-23T09:29:35.273Z,98690.48
2022-12-23T09:34:40.603Z,98684.85
2022-12-23T09:39:45.416Z,98680.25
2022-12-23T09:45:16.936Z,98677.52
2022-12-23T09:50:33.302Z,98669.27
2022-12-23T09:55:56.366Z,98668.20
2022-12-23T10:01:12.630Z,98666.16
2022-12-23T10:06:26.310Z,98661.66
2022-12-23T10:11:43.027Z,98654.59
2022-12-23T10:16:53.518Z,98653.80
2022-12-23T10:22:03.411Z,98655.30
2022-12-23T10:27:25.592Z,98652.05
2022-12-23T10:32:51.325Z,98650.20
2022-12-23T10:38:04.885Z,98649.50
2022-12-23T10:43:22.273Z,98648.75
2022-12-23T10:48:44.891Z,98646.20
2022-12-23T10:54:07.202Z,98637.40
2022-12-23T10:59:17.235Z,98631.45
2022-12-23T11:04:38.389Z,98628.75
2022-12-23T11:09:52.246Z,98626.48
2022-12-23T11:14:58.913Z,98623.98
2022-12-23T11:20:16.569Z,98623.21
2022-12-23T11:31:08.999Z,98617.80
2022-12-23T11:36:14.171Z,98617.27
2022-12-23T11:41:24.764Z,98614.46
2022-12-23T11:46:33.136Z,98612.92
2022-12-23T11:51:38.336Z,98611.94
2022-12-23T11:56:42.942Z,98612.08
2022-12-23T12:01:50.158Z,98608.17
2022-12-23T12:06:56.764Z,98615.76
2022-12-23T12:12:14.993Z,98620.60
2022-12-23T12:17:23.641Z,98620.46
2022-12-23T12:22:37.879Z,98624.23
2022-12-23T12:27:46.534Z,98625.39
2022-12-23T12:33:05.927Z,98620.10
2022-12-23T12:38:26.088Z,98620.98
2022-12-23T12:43:36.532Z,98621.98
2022-12-23T12:48:49.522Z,98620.36
2022-12-23T12:54:06.733Z,98615.45
2022-12-23T12:59:18.573Z,98609.16
2022-12-23T13:04:43.918Z,98610.72
2022-12-23T13:10:05.825Z,98611.70
2022-12-23T13:15:20.295Z,98613.66
2022-12-23T13:21:00.788Z,98621.79
2022-12-23T13:26:19.879Z,98622.92
2022-12-23T13:31:39.192Z,98632.13
2022-12-23T13:36:50.094Z,98634.48
2022-12-23T13:42:04.600Z,98641.52
2022-12-23T13:47:29.867Z,98641.33
2022-12-23T13:52:48.423Z,98646.31
2022-12-23T13:58:03.175Z,98645.02
2022-12-23T14:03:10.219Z,98645.98
2022-12-23T14:08:20.382Z,98655.46
2022-12-23T14:13:29.599Z,98655.01
2022-12-23T14:18:45.440Z,98655.40
2022-12-23T14:24:24.893Z,98658.73
2022-12-23T14:29:57.500Z,98657.52
2022-12-23T14:35:17.944Z,98665.74
2022-12-23T14:40:39.824Z,98661.52
2022-12-23T14:45:44.045Z,98657.81
2022-12-23T14:51:02.204Z,98660.42
2022-12-23T14:56:12.647Z,98667.13
2022-12-23T15:01:21.814Z,98675.49
2022-12-23T15:06:40.067Z,98689.33
2022-12-23T15:11:44.109Z,98691.86
2022-12-23T15:16:47.945Z,98696.85
2022-12-23T15:22:03.226Z,98698.36
2022-12-23T15:27:29.786Z,98699.30
2022-12-23T15:32:34.556Z,98693.77
2022-12-23T15:37:40.640Z,98687.77
2022-12-23T15:42:49.784Z,98683.17
2022-12-23T15:47:53.944Z,98683.45
2022-12-23T15:53:07.386Z,98680.14
2022-12-23T15:58:24.568Z,98693.29
2022-12-23T16:03:39.893Z,98700.27
2022-12-23T16:08:44.383Z,98693.09
2022-12-23T16:14:01.185Z,98693.48
2022-12-23T16:19:06.543Z,98690.42
2022-12-23T16:24:10.952Z,98692.55
2022-12-23T16:29:15.940Z,98691.40
2022-12-23T16:34:19.799Z,98701.65
2022-12-23T16:39:24.839Z,98702.08
2022-12-23T16:44:30.165Z,98711.69
2022-12-23T16:49:38.011Z,98714.61
2022-12-23T16:54:42.893Z,98723.06
2022-12-23T16:59:48.352Z,98713.09
2022-12-23T17:04:54.622Z,98708.34
2022-12-23T17:10:04.870Z,98711.48
2022-12-23T17:15:24.615Z,98716.56
2022-12-23T17:20:27.916Z,98720.16
2022-12-23T17:25:32.203Z,98722.88
2022-12-23T17:30:38.024Z,98730.23
2022-12-23T17:35:42.118Z,98730.56
2022-12-23T17:40:49.397Z,98734.02
2022-12-23T17:45:53.742Z,98733.39
2022-12-23T17:50:58.169Z,98737.60
2022-12-23T17:56:02.399Z,98743.39
2022-12-23T18:01:07.315Z,98746.70
2022-12-23T18:06:14.976Z,98749.83
2022-12-23T18:11:34.187Z,98755.71
2022-12-23T18:16:39.820Z,98766.46
2022-12-23T18:21:47.745Z,98781.36
2022-12-23T18:26:53.342Z,98790.73
2022-12-23T18:31:58.021Z,98789.65
2022-12-23T18:37:02.557Z,98791.52
2022-12-23T18:42:06.911Z,98787.71
2022-12-23T18:47:12.094Z,98789.73
2022-12-23T18:52:16.496Z,98792.74
2022-12-23T18:57:21.760Z,98781.56
2022-12-23T19:02:26.402Z,98770.73
2022-12-23T19:07:32.444Z,98768.95
2022-12-23T19:12:37.805Z,98775.31
2022-12-23T19:17:42.241Z,98779.84
2022-12-23T19:22:47.335Z,98792.52
2022-12-23T19:27:51.717Z,98800.81
2022-12-23T19:32:56.002Z,98803.54
2022-12-23T19:38:01.217Z,98806.02
2022-12-23T19:43:06.232Z,98808.75
2022-12-23T19:48:16.499Z,98799.02
2022-12-23T19:53:25.140Z,98797.39
2022-12-23T19:58:36.971Z,98792.18
2022-12-23T20:03:45.084Z,98808.20
2022-12-23T20:08:53.808Z,98795.68
2022-12-23T20:14:04.001Z,98787.55
2022-12-23T20:19:08.671Z,98789.88
2022-12-23T20:24:13.759Z,98797.71
2022-12-23T20:29:17.533Z,98797.31
2022-12-23T20:34:21.210Z,98799.21
2022-12-23T20:39:25.299Z,98786.20
2022-12-23T20:44:37.210Z,98789.30
2022-12-23T20:49:41.126Z,98784.21
2022-12-23T20:54:45.760Z,98782.78
2022-12-23T20:59:50.239Z,98785.66
2022-12-23T21:04:53.940Z,98793.63
2022-12-23T21:09:58.022Z,98792.83
2022-12-23T21:15:01.642Z,98791.17
2022-12-23T21:20:07.922Z,98796.54
2022-12-23T21:25:13.320Z,98798.13
2022-12-23T21:30:17.136Z,98802.18
2022-12-23T21:35:21.564Z,98796.83
2022-12-23T21:40:25.848Z,98802.48
2022-12-23T21:45:29.889Z,98796.30
2022-12-23T21:50:34.847Z,98794.98
2022-12-23T21:55:40.423Z,98789.66
2022-12-23T22:00:47.380Z,98779.07
2022-12-23T22:05:54.784Z,98782.46
2022-12-23T22:11:00.737Z,98772.27
2022-12-23T22:16:05.899Z,98786.60
2022-12-23T22:21:12.331Z,98785.84
2022-12-23T22:26:24.133Z,98781.61
2022-12-23T22:31:32.100Z,98771.91
2022-12-23T22:36:37.813Z,98769.02
2022-12-23T22:41:41.501Z,98769.02
2022-12-23T22:46:45.650Z,98763.26
2022-12-23T22:51:50.080Z,98758.97
2022-12-23T22:56:54.146Z,98754.32
2022-12-23T23:01:58.026Z,98760.95
2022-12-23T23:07:02.623Z,98758.95
2022-12-23T23:12:06.313Z,98748.25
2022-12-23T23:17:12.076Z,98744.11
2022-12-23T23:22:19.937Z,98737.96
2022-12-23T23:27:26.630Z,98729.45
2022-12-23T23:32:32.668Z,98727.11
2022-12-23T23:37:39.712Z,98720.27
2022-12-23T23:42:51.857Z,98720.35
2022-12-23T23:48:01.102Z,98721.41
2022-12-23T23:53:07.878Z,98716.73
2022-12-23T23:58:13.693Z,98717.45
